Time;durP1;ratioP1;P1;durP2;ratioP2;P2;SDS_P1;SDS_P2;PMS_P1;PMS_P2;Temp;Humidity;BMP_temperature;BMP_pressure;BME280_temperature;BME280_humidity;BME280_pressure;Samples;Min_cycle;Max_cycle;Signal;HPM_P1;HPM_P2
2021/12/16 00:08:55;;;;;;;177.60;64.47;;;5.60;99.90;;;;;;5017249;28;20022;-71
2021/12/16 00:19:26;;;;;;;118.57;53.05;;;5.50;99.90;;;;;;5021435;28;20399;-72
2021/12/16 00:35:48;;;;;;;121.60;54.28;;;5.50;99.90;;;;;;5027602;28;20441;-72
2021/12/16 00:38:15;;;;;;;151.15;60.28;;;5.60;99.90;;;;;;5033439;28;20104;-71
2021/12/16 00:40:42;;;;;;;137.95;57.97;;;5.60;99.90;;;;;;5025032;28;20032;-70
2021/12/16 00:45:56;;;;;;;96.18;49.58;;;5.60;99.90;;;;;;5025603;28;20056;-71
2021/12/16 00:48:25;;;;;;;103.75;52.65;;;5.50;99.90;;;;;;5022386;28;20029;-72
2021/12/16 00:56:12;;;;;;;137.50;57.05;;;5.60;99.90;;;;;;5027287;28;20105;-72
2021/12/16 00:58:45;;;;;;;128.18;58.78;;;5.50;99.90;;;;;;5028381;28;20112;-72
2021/12/16 01:01:31;;;;;;;142.70;59.78;;;5.50;99.90;;;;;;5033993;28;20068;-72
2021/12/16 01:09:51;;;;;;;144.18;60.53;;;5.40;99.90;;;;;;5014247;28;20030;-72
2021/12/16 01:34:25;;;;;;;119.93;54.92;;;5.50;99.90;;;;;;5013420;28;20036;-71
2021/12/16 01:45:43;;;;;;;122.97;55.97;;;5.60;99.90;;;;;;5013411;28;20056;-73
2021/12/16 01:47:51;;;;;;;110.57;52.92;;;5.60;99.90;;;;;;5012627;28;20185;-72
2021/12/16 01:50:25;;;;;;;118.75;54.80;;;5.80;99.90;;;;;;5013471;28;20183;-72
2021/12/16 01:53:10;;;;;;;103.45;50.20;;;5.60;99.90;;;;;;5011860;28;20033;-73
2021/12/16 01:56:03;;;;;;;161.05;62.58;;;5.60;99.90;;;;;;5012880;28;20116;-72
2021/12/16 01:58:32;;;;;;;124.13;55.38;;;5.60;99.90;;;;;;5011907;28;20025;-72
2021/12/16 02:01:19;;;;;;;120.28;53.85;;;5.60;99.90;;;;;;5013001;28;20026;-73
2021/12/16 02:03:55;;;;;;;146.43;60.95;;;5.60;99.90;;;;;;5011909;28;20084;-72
2021/12/16 02:09:14;;;;;;;136.05;58.60;;;5.60;99.90;;;;;;5013185;28;20034;-72
2021/12/16 02:34:19;;;;;;;128.82;57.40;;;5.60;99.90;;;;;;5008351;28;20025;-72
2021/12/16 02:36:46;;;;;;;152.43;60.95;;;5.50;99.90;;;;;;4999122;28;20044;-71
2021/12/16 02:39:14;;;;;;;166.48;63.08;;;5.60;99.90;;;;;;5026816;28;20099;-71
2021/12/16 02:41:42;;;;;;;148.27;60.42;;;5.50;99.90;;;;;;5031990;28;20365;-72
2021/12/16 02:44:18;;;;;;;134.30;58.13;;;5.60;99.90;;;;;;5032120;28;20369;-71
2021/12/16 02:49:32;;;;;;;136.02;58.60;;;5.60;99.90;;;;;;5011403;28;20057;-72
2021/12/16 02:51:58;;;;;;;126.72;55.95;;;5.60;99.90;;;;;;5020641;28;20030;-73
2021/12/16 02:54:25;;;;;;;129.48;56.30;;;5.60;99.90;;;;;;5024076;28;20396;-72
2021/12/16 02:56:51;;;;;;;150.63;59.58;;;5.50;99.90;;;;;;5012023;28;20050;-72
2021/12/16 02:59:19;;;;;;;170.98;63.78;;;5.50;99.90;;;;;;5017693;28;20068;-72
2021/12/16 03:01:51;;;;;;;158.70;60.22;;;5.60;99.90;;;;;;5010707;28;20496;-72
2021/12/16 03:04:20;;;;;;;170.18;62.80;;;5.60;99.90;;;;;;5024847;28;20022;-73
2021/12/16 03:06:49;;;;;;;125.78;55.40;;;5.50;99.90;;;;;;5012024;28;20488;-71
2021/12/16 03:09:19;;;;;;;148.93;59.38;;;5.50;99.90;;;;;;5006546;28;20029;-72
2021/12/16 03:12:25;;;;;;;129.68;57.75;;;5.50;99.90;;;;;;5011761;28;20038;-72
2021/12/16 03:14:44;;;;;;;162.35;61.70;;;5.60;99.90;;;;;;5011676;28;20523;-72
2021/12/16 03:17:19;;;;;;;171.13;63.45;;;5.40;99.90;;;;;;5003453;28;20049;-73
2021/12/16 03:19:59;;;;;;;151.98;60.95;;;5.40;99.90;;;;;;5011846;28;20137;-73
2021/12/16 03:28:16;;;;;;;125.20;56.28;;;5.50;99.90;;;;;;5011727;28;20014;-71
2021/12/16 03:31:00;;;;;;;136.68;58.22;;;5.40;99.90;;;;;;5001233;28;20408;-72
2021/12/16 03:36:14;;;;;;;149.10;61.72;;;5.60;99.90;;;;;;5011715;28;20029;-72
2021/12/16 03:38:42;;;;;;;153.60;62.53;;;5.60;99.90;;;;;;5021809;28;20037;-72
2021/12/16 03:41:08;;;;;;;191.85;67.88;;;5.50;99.90;;;;;;5031331;28;20017;-72
2021/12/16 03:43:36;;;;;;;145.15;62.42;;;5.60;99.90;;;;;;5021322;28;20026;-72
2021/12/16 03:48:59;;;;;;;146.65;61.10;;;5.40;99.90;;;;;;5019923;28;20038;-72
2021/12/16 03:51:36;;;;;;;189.48;67.22;;;5.40;99.90;;;;;;4999777;28;20117;-72
2021/12/16 03:54:31;;;;;;;198.75;66.97;;;5.50;99.90;;;;;;5011343;28;20053;-71
2021/12/16 03:57:00;;;;;;;149.55;61.78;;;5.40;99.90;;;;;;5011570;28;20439;-70
2021/12/16 03:59:31;;;;;;;157.05;64.15;;;5.40;99.90;;;;;;5011530;28;20036;-70
2021/12/16 04:02:00;;;;;;;149.18;61.20;;;5.40;99.90;;;;;;5011451;28;20026;-70
2021/12/16 04:04:25;;;;;;;140.05;61.65;;;5.40;99.90;;;;;;5011312;28;20022;-70
2021/12/16 04:06:51;;;;;;;160.10;64.63;;;5.40;99.90;;;;;;5011460;28;20105;-72
2021/12/16 04:09:18;;;;;;;143.40;63.20;;;5.40;99.90;;;;;;5010038;28;20018;-71
2021/12/16 04:11:56;;;;;;;167.40;66.20;;;5.50;99.90;;;;;;5013206;28;20034;-72
2021/12/16 04:14:22;;;;;;;162.68;65.50;;;5.50;99.90;;;;;;5013618;28;20034;-70
2021/12/16 04:16:57;;;;;;;139.82;58.75;;;5.40;99.90;;;;;;5015005;28;20030;-71
2021/12/16 04:19:26;;;;;;;145.90;61.22;;;5.40;99.90;;;;;;5015077;28;20084;-71
2021/12/16 04:21:56;;;;;;;193.05;69.03;;;5.40;99.90;;;;;;5014867;28;20022;-71
2021/12/16 04:24:22;;;;;;;145.77;62.67;;;5.50;99.90;;;;;;5014796;28;20025;-71
2021/12/16 04:26:50;;;;;;;135.75;59.63;;;5.50;99.90;;;;;;5014875;28;20022;-71
2021/12/16 04:29:17;;;;;;;161.25;63.88;;;5.50;99.90;;;;;;5014763;28;20026;-71
2021/12/16 04:31:44;;;;;;;166.50;63.58;;;5.50;99.90;;;;;;5014667;28;20587;-71
2021/12/16 04:34:11;;;;;;;150.77;59.47;;;5.50;99.90;;;;;;5014432;28;20030;-71
2021/12/16 04:36:37;;;;;;;176.20;64.22;;;5.50;99.90;;;;;;5014736;28;20481;-71
2021/12/16 04:39:10;;;;;;;120.25;55.17;;;5.50;99.90;;;;;;5014787;28;20041;-70
2021/12/16 04:41:37;;;;;;;158.95;61.42;;;5.60;99.90;;;;;;4993785;28;20026;-71
2021/12/16 04:44:06;;;;;;;177.10;65.25;;;5.60;99.90;;;;;;5022028;28;20034;-72
2021/12/16 04:46:32;;;;;;;146.98;63.00;;;5.50;99.90;;;;;;5032880;28;20026;-72
2021/12/16 04:48:59;;;;;;;174.57;65.72;;;5.60;99.90;;;;;;5034193;28;20033;-71
2021/12/16 04:51:30;;;;;;;140.18;61.40;;;5.60;99.90;;;;;;5034284;28;20030;-72
2021/12/16 04:53:56;;;;;;;165.45;64.10;;;5.50;99.90;;;;;;5032262;28;20432;-70
2021/12/16 04:56:22;;;;;;;219.05;71.00;;;5.60;99.90;;;;;;5014432;28;20080;-71
2021/12/16 04:58:51;;;;;;;192.50;68.63;;;5.50;99.90;;;;;;5016051;28;20026;-70
2021/12/16 05:01:18;;;;;;;176.63;66.28;;;5.50;99.90;;;;;;5033988;28;20021;-71
2021/12/16 05:03:44;;;;;;;141.63;58.83;;;5.50;99.90;;;;;;5032616;28;20030;-71
2021/12/16 05:06:10;;;;;;;144.00;61.42;;;5.50;99.90;;;;;;5024933;28;20030;-70
2021/12/16 05:08:37;;;;;;;191.57;68.72;;;5.60;99.90;;;;;;5014037;28;20575;-71
2021/12/16 05:11:04;;;;;;;165.00;62.60;;;5.60;99.90;;;;;;5012558;28;20029;-71
2021/12/16 05:13:31;;;;;;;145.00;59.53;;;5.60;99.90;;;;;;5011825;28;20116;-72
2021/12/16 05:16:01;;;;;;;158.23;62.40;;;5.60;99.90;;;;;;5013414;28;20018;-71
2021/12/16 05:18:33;;;;;;;139.30;60.13;;;5.60;99.90;;;;;;5012464;28;20050;-72
2021/12/16 05:21:06;;;;;;;172.30;65.50;;;5.60;99.90;;;;;;5012038;28;20026;-71
2021/12/16 05:26:19;;;;;;;157.07;63.05;;;5.60;99.90;;;;;;5012282;28;20084;-71
2021/12/16 05:28:58;;;;;;;194.38;67.47;;;5.60;99.90;;;;;;5013697;28;20022;-70
2021/12/16 05:31:26;;;;;;;153.77;62.95;;;5.50;99.90;;;;;;5013632;28;20026;-72
2021/12/16 05:33:53;;;;;;;176.88;65.72;;;5.50;99.90;;;;;;5013500;28;20030;-71
2021/12/16 05:36:19;;;;;;;147.68;61.65;;;5.50;99.90;;;;;;5013574;28;20488;-71
2021/12/16 05:38:45;;;;;;;152.88;62.85;;;5.50;99.90;;;;;;5013431;28;20076;-71
2021/12/16 05:41:15;;;;;;;170.13;64.45;;;5.50;99.90;;;;;;5013355;28;20026;-71
2021/12/16 05:43:41;;;;;;;146.70;60.35;;;5.50;99.90;;;;;;5012188;28;20150;-71
2021/12/16 05:46:08;;;;;;;140.55;60.90;;;5.50;99.90;;;;;;5018483;28;20117;-71
2021/12/16 05:48:37;;;;;;;163.10;62.70;;;5.50;99.90;;;;;;5033271;28;20028;-70
2021/12/16 05:51:09;;;;;;;150.68;62.25;;;5.50;99.90;;;;;;5032915;28;20587;-70
2021/12/16 05:53:35;;;;;;;159.13;65.10;;;5.40;99.90;;;;;;5033034;28;20065;-70
2021/12/16 05:56:01;;;;;;;175.25;65.47;;;5.40;99.90;;;;;;5032775;28;20425;-72
2021/12/16 05:58:28;;;;;;;168.27;67.35;;;5.50;99.90;;;;;;5033058;28;20022;-72
2021/12/16 06:00:58;;;;;;;116.40;55.70;;;5.50;99.90;;;;;;5006451;28;20029;-71
2021/12/16 06:03:25;;;;;;;157.82;62.20;;;5.50;99.90;;;;;;5018174;28;20030;-72
2021/12/16 06:05:52;;;;;;;173.98;69.03;;;5.50;99.90;;;;;;5018733;28;20030;-72
2021/12/16 06:08:18;;;;;;;143.88;63.10;;;5.50;99.90;;;;;;5024315;28;20025;-72
2021/12/16 06:13:10;;;;;;;161.23;64.28;;;5.50;99.90;;;;;;5026222;28;20383;-71
2021/12/16 06:22:20;;;;;;;164.43;63.88;;;5.40;99.90;;;;;;5019768;28;20031;-71
2021/12/16 06:29:29;;;;;;;145.00;63.03;;;5.30;99.90;;;;;;5017604;28;20025;-72
2021/12/16 06:31:54;;;;;;;175.98;68.47;;;5.40;99.90;;;;;;5012450;28;20026;-72
2021/12/16 06:34:20;;;;;;;155.60;62.70;;;5.40;99.90;;;;;;5010289;28;20031;-72
2021/12/16 06:36:46;;;;;;;160.40;67.88;;;5.30;99.90;;;;;;5020544;28;20430;-72
2021/12/16 06:39:12;;;;;;;158.95;64.95;;;5.30;99.90;;;;;;5017501;28;20022;-72
2021/12/16 06:41:38;;;;;;;159.15;64.10;;;5.40;99.90;;;;;;5012379;28;20026;-72
2021/12/16 06:44:12;;;;;;;209.57;73.88;;;5.40;99.90;;;;;;5013526;28;20106;-72
2021/12/16 06:46:40;;;;;;;161.52;66.13;;;5.40;99.90;;;;;;5023074;28;20053;-72
2021/12/16 06:49:06;;;;;;;199.82;74.22;;;5.40;99.90;;;;;;5012327;28;20061;-72
2021/12/16 06:51:43;;;;;;;171.13;69.07;;;5.40;99.90;;;;;;5012276;28;20044;-72
2021/12/16 06:54:14;;;;;;;189.73;74.72;;;5.40;99.90;;;;;;5015041;28;20029;-72
2021/12/16 06:56:51;;;;;;;139.85;63.35;;;5.30;99.90;;;;;;5019276;28;20093;-73
2021/12/16 06:59:24;;;;;;;195.57;71.88;;;5.40;99.90;;;;;;5012656;28;20022;-71
2021/12/16 07:02:07;;;;;;;196.50;75.72;;;5.40;99.90;;;;;;5012163;28;20048;-72
2021/12/16 07:04:34;;;;;;;254.27;98.25;;;5.40;99.90;;;;;;5011910;28;20030;-72
2021/12/16 07:07:00;;;;;;;226.13;95.47;;;5.40;99.90;;;;;;5025265;28;20026;-72
2021/12/16 07:09:26;;;;;;;205.45;90.22;;;5.30;99.90;;;;;;5010723;28;20022;-72
2021/12/16 07:11:56;;;;;;;261.30;109.00;;;5.40;99.90;;;;;;5014993;28;20039;-71
2021/12/16 07:14:34;;;;;;;208.38;95.97;;;5.40;99.90;;;;;;5031434;28;20430;-70
2021/12/16 07:17:01;;;;;;;181.23;82.43;;;5.40;99.90;;;;;;5020595;28;20080;-71
2021/12/16 07:19:26;;;;;;;194.15;80.75;;;5.40;99.90;;;;;;5010826;28;20438;-71
2021/12/16 07:21:52;;;;;;;189.98;79.95;;;5.40;99.90;;;;;;5017346;28;20082;-72
2021/12/16 07:24:19;;;;;;;197.30;79.72;;;5.40;99.90;;;;;;5031397;28;20052;-71
2021/12/16 07:26:45;;;;;;;216.93;81.28;;;5.40;99.90;;;;;;5024581;28;20036;-71
2021/12/16 07:29:11;;;;;;;222.68;77.28;;;5.40;99.90;;;;;;5011933;28;20030;-72
2021/12/16 07:31:39;;;;;;;176.40;76.95;;;5.40;99.90;;;;;;5011880;28;20064;-71
2021/12/16 07:34:05;;;;;;;186.75;75.78;;;5.40;99.90;;;;;;5011553;28;20045;-71
2021/12/16 07:36:33;;;;;;;177.30;75.93;;;5.40;99.90;;;;;;5011809;28;20484;-71
2021/12/16 07:39:01;;;;;;;159.07;68.40;;;5.40;99.90;;;;;;5011695;28;20026;-71
2021/12/16 07:41:32;;;;;;;208.95;79.25;;;5.40;99.90;;;;;;5011646;28;20580;-71
2021/12/16 07:44:12;;;;;;;210.25;86.60;;;5.50;99.90;;;;;;5012251;28;20032;-72
2021/12/16 07:46:45;;;;;;;165.68;78.05;;;5.40;99.90;;;;;;5035307;28;20036;-72
2021/12/16 07:49:16;;;;;;;208.80;85.32;;;5.30;99.90;;;;;;5017267;28;20022;-71
2021/12/16 07:51:43;;;;;;;148.52;71.90;;;5.30;99.90;;;;;;5015615;28;20073;-71
2021/12/16 07:54:09;;;;;;;157.77;72.40;;;5.30;99.90;;;;;;5015228;28;20034;-72
2021/12/16 07:56:35;;;;;;;140.40;65.47;;;5.40;99.90;;;;;;5015542;28;20014;-71
2021/12/16 07:59:02;;;;;;;192.45;78.63;;;5.40;99.90;;;;;;5015509;28;20388;-71
2021/12/16 08:01:27;;;;;;;193.02;73.57;;;5.40;99.90;;;;;;5026363;28;20100;-72
2021/12/16 08:03:54;;;;;;;151.65;69.13;;;5.40;99.90;;;;;;5016242;28;20088;-70
2021/12/16 08:06:23;;;;;;;154.43;67.57;;;5.40;99.90;;;;;;5026165;28;20104;-71
2021/12/16 08:08:57;;;;;;;167.27;70.32;;;5.40;99.90;;;;;;5030135;28;20096;-71
2021/12/16 08:11:25;;;;;;;184.20;71.63;;;5.50;99.90;;;;;;5013746;28;20500;-71
2021/12/16 08:13:51;;;;;;;147.35;65.68;;;5.50;99.90;;;;;;5034243;28;20535;-71
2021/12/16 08:16:22;;;;;;;196.27;76.15;;;5.50;99.90;;;;;;5034790;28;20120;-72
2021/12/16 08:18:51;;;;;;;174.90;73.65;;;5.50;99.90;;;;;;5008869;28;20044;-71
2021/12/16 08:21:17;;;;;;;184.27;76.45;;;5.60;99.90;;;;;;5034698;28;20075;-71
2021/12/16 08:23:44;;;;;;;225.90;88.80;;;5.60;99.90;;;;;;5034861;28;20112;-71
2021/12/16 08:26:09;;;;;;;170.45;84.05;;;5.60;99.90;;;;;;5034574;28;20025;-71
2021/12/16 08:28:35;;;;;;;181.43;80.35;;;5.70;99.90;;;;;;5034739;28;20045;-71
2021/12/16 08:31:01;;;;;;;171.55;82.78;;;5.60;99.90;;;;;;5034533;28;20057;-72
2021/12/16 08:33:26;;;;;;;160.13;79.60;;;5.70;99.90;;;;;;5027667;28;20088;-71
2021/12/16 08:35:54;;;;;;;146.77;78.57;;;5.70;99.90;;;;;;5014482;28;20034;-71
2021/12/16 08:38:23;;;;;;;126.80;66.20;;;5.80;99.90;;;;;;5014707;28;20029;-71
2021/12/16 08:40:51;;;;;;;160.32;71.28;;;5.80;99.90;;;;;;5013299;28;20026;-71
2021/12/16 08:43:18;;;;;;;121.88;61.25;;;5.90;99.90;;;;;;5014761;28;20022;-71
2021/12/16 08:45:45;;;;;;;182.70;73.40;;;5.80;99.90;;;;;;5029055;28;20484;-72
2021/12/16 08:48:12;;;;;;;215.93;90.97;;;5.80;99.90;;;;;;5034295;28;20109;-71
2021/12/16 08:50:41;;;;;;;190.18;81.00;;;5.80;99.90;;;;;;5034133;28;20040;-71
2021/12/16 08:53:08;;;;;;;188.52;80.82;;;5.80;99.90;;;;;;5032095;28;20022;-71
2021/12/16 08:55:35;;;;;;;152.48;68.15;;;5.80;99.90;;;;;;5032008;28;20473;-71
2021/12/16 08:58:03;;;;;;;155.88;69.20;;;5.80;99.90;;;;;;5031793;28;20087;-71
2021/12/16 09:00:33;;;;;;;143.43;66.28;;;5.80;99.90;;;;;;5033011;28;20022;-71
2021/12/16 09:02:59;;;;;;;134.73;64.68;;;5.80;99.90;;;;;;5033933;28;20025;-71
2021/12/16 09:05:25;;;;;;;150.07;68.18;;;5.80;99.90;;;;;;5033780;28;20518;-71
2021/12/16 09:07:51;;;;;;;158.38;69.68;;;5.80;99.90;;;;;;5033792;28;20523;-72
2021/12/16 09:10:25;;;;;;;145.00;67.65;;;5.80;99.90;;;;;;5014273;28;20061;-72
2021/12/16 09:13:02;;;;;;;136.95;64.05;;;5.80;99.90;;;;;;5013847;28;20036;-71
2021/12/16 09:15:48;;;;;;;128.68;61.45;;;5.70;99.90;;;;;;5032993;28;20036;-71
2021/12/16 09:18:17;;;;;;;122.05;61.15;;;5.70;99.90;;;;;;5009716;28;20030;-71
2021/12/16 09:20:42;;;;;;;131.70;62.95;;;5.80;99.90;;;;;;5013836;28;20025;-71
2021/12/16 09:23:10;;;;;;;145.20;65.95;;;5.80;99.90;;;;;;5013871;28;20049;-71
2021/12/16 09:25:38;;;;;;;122.82;60.08;;;5.70;99.90;;;;;;5013622;28;20502;-71
2021/12/16 09:28:03;;;;;;;125.40;60.53;;;5.90;99.90;;;;;;5012495;28;20487;-71
2021/12/16 09:30:30;;;;;;;130.18;63.42;;;6.00;99.90;;;;;;5013800;28;20033;-71
2021/12/16 09:32:59;;;;;;;167.32;71.22;;;6.10;99.90;;;;;;5012284;28;20412;-71
2021/12/16 09:35:28;;;;;;;122.80;63.17;;;6.20;99.90;;;;;;5012134;28;20030;-71
2021/12/16 09:37:55;;;;;;;136.27;65.18;;;6.00;99.90;;;;;;5013662;28;20539;-72
2021/12/16 09:40:24;;;;;;;128.45;62.85;;;5.90;99.90;;;;;;5013592;28;20551;-71
2021/12/16 09:42:51;;;;;;;148.05;65.15;;;6.00;99.90;;;;;;5031487;28;20025;-71
2021/12/16 09:45:18;;;;;;;134.23;61.40;;;6.00;99.90;;;;;;5020323;28;20486;-71
2021/12/16 09:47:44;;;;;;;146.75;64.53;;;6.00;99.90;;;;;;5013352;28;20022;-71
2021/12/16 09:50:12;;;;;;;147.57;66.53;;;6.00;99.90;;;;;;5013385;28;20439;-71
2021/12/16 09:52:38;;;;;;;165.13;71.05;;;6.00;99.90;;;;;;5011863;28;20034;-71
2021/12/16 09:55:05;;;;;;;140.73;64.45;;;6.00;99.90;;;;;;5012462;28;20020;-71
2021/12/16 09:57:31;;;;;;;144.43;65.25;;;6.10;99.90;;;;;;5018556;28;20116;-71
2021/12/16 09:59:57;;;;;;;146.90;67.25;;;6.10;99.90;;;;;;5026075;28;20053;-72
2021/12/16 10:02:23;;;;;;;134.18;64.07;;;6.10;99.90;;;;;;5019613;28;20075;-71
2021/12/16 10:04:49;;;;;;;135.48;63.78;;;6.10;99.90;;;;;;5032774;28;20473;-71
2021/12/16 10:07:19;;;;;;;134.13;64.60;;;6.00;99.90;;;;;;5019641;28;20067;-71
2021/12/16 10:09:46;;;;;;;127.30;63.75;;;6.10;99.90;;;;;;5017651;28;20022;-71
2021/12/16 10:12:17;;;;;;;132.50;64.00;;;6.10;99.90;;;;;;5026087;28;20036;-71
2021/12/16 10:17:38;;;;;;;132.32;63.03;;;6.30;99.90;;;;;;5007392;28;20026;-73
2021/12/16 10:20:25;;;;;;;125.82;62.10;;;6.50;99.90;;;;;;5012822;28;20045;-72
2021/12/16 10:22:59;;;;;;;118.18;62.03;;;6.50;99.90;;;;;;5012804;28;20480;-71
2021/12/16 10:25:33;;;;;;;115.15;60.33;;;6.40;99.90;;;;;;5011210;28;20424;-72
2021/12/16 10:27:59;;;;;;;110.35;58.72;;;6.60;99.90;;;;;;5012661;28;20476;-72
2021/12/16 10:30:34;;;;;;;110.35;59.03;;;6.60;99.90;;;;;;5012584;28;20033;-71
2021/12/16 10:33:10;;;;;;;115.53;59.65;;;6.60;99.90;;;;;;5012465;28;20021;-72
2021/12/16 10:35:36;;;;;;;108.28;57.10;;;6.60;99.90;;;;;;5010858;28;20123;-72
2021/12/16 10:38:05;;;;;;;111.40;59.65;;;6.60;99.90;;;;;;5012415;28;20491;-73
2021/12/16 10:40:52;;;;;;;113.50;57.95;;;6.50;99.90;;;;;;5012506;28;20033;-71
2021/12/16 10:43:33;;;;;;;116.28;58.13;;;6.40;99.90;;;;;;5012503;28;20070;-72
2021/12/16 10:46:12;;;;;;;112.10;57.97;;;6.50;99.90;;;;;;5010878;28;20026;-71
2021/12/16 10:48:47;;;;;;;102.30;56.75;;;6.50;99.90;;;;;;5012448;28;20033;-72
2021/12/16 10:51:19;;;;;;;106.25;56.67;;;6.50;99.90;;;;;;5012080;28;20049;-73
2021/12/16 10:53:59;;;;;;;116.68;58.08;;;6.60;99.90;;;;;;5012183;28;20496;-73
2021/12/16 10:56:29;;;;;;;107.97;56.33;;;6.60;99.90;;;;;;5012324;28;20018;-72
2021/12/16 10:59:07;;;;;;;113.78;59.15;;;6.60;99.90;;;;;;5026644;28;20029;-73
2021/12/16 11:01:34;;;;;;;98.95;55.30;;;6.60;99.90;;;;;;5031831;28;20022;-73
2021/12/16 11:04:02;;;;;;;104.25;56.28;;;6.70;99.90;;;;;;5031489;28;20101;-72
2021/12/16 11:06:30;;;;;;;104.25;56.72;;;6.60;99.90;;;;;;5031878;28;20030;-72
2021/12/16 11:09:33;;;;;;;111.00;57.97;;;6.60;99.90;;;;;;5021996;28;20058;-73
2021/12/16 11:12:13;;;;;;;110.30;56.92;;;6.60;99.90;;;;;;5026948;28;20109;-72
2021/12/16 11:14:43;;;;;;;108.25;61.13;;;6.50;99.90;;;;;;5011797;28;20038;-72
2021/12/16 11:17:11;;;;;;;106.53;59.65;;;6.50;99.90;;;;;;5011885;28;20017;-72
2021/12/16 11:19:52;;;;;;;107.10;56.85;;;6.50;99.90;;;;;;5011385;28;20041;-71
2021/12/16 11:22:23;;;;;;;103.63;57.33;;;6.50;99.90;;;;;;5011904;28;20029;-72
2021/12/16 11:24:50;;;;;;;97.70;56.13;;;6.50;99.90;;;;;;5013770;28;20029;-72
2021/12/16 11:27:36;;;;;;;106.40;58.78;;;6.50;99.90;;;;;;5011811;28;20120;-72
2021/12/16 11:30:18;;;;;;;96.82;53.78;;;6.60;99.90;;;;;;5011873;28;20022;-72
2021/12/16 11:32:46;;;;;;;89.82;52.28;;;6.50;99.90;;;;;;5010275;28;20052;-72
2021/12/16 11:35:27;;;;;;;85.18;51.10;;;6.40;99.90;;;;;;5010736;28;20029;-72
2021/12/16 11:37:53;;;;;;;83.10;49.83;;;6.50;99.90;;;;;;5010074;28;20032;-72
2021/12/16 11:40:19;;;;;;;78.80;47.50;;;6.50;99.90;;;;;;5011093;28;20021;-72
2021/12/16 11:43:02;;;;;;;87.07;51.90;;;6.40;99.90;;;;;;5011309;28;20113;-72
2021/12/16 11:45:38;;;;;;;80.95;49.58;;;6.50;99.90;;;;;;5013845;28;20108;-71
2021/12/16 11:48:06;;;;;;;73.82;47.35;;;6.50;99.90;;;;;;5019147;28;20423;-71
2021/12/16 11:50:40;;;;;;;79.50;48.53;;;6.40;99.90;;;;;;5015061;28;20506;-72
2021/12/16 11:53:08;;;;;;;78.55;48.58;;;6.50;99.90;;;;;;5008398;28;20492;-71
2021/12/16 11:55:38;;;;;;;79.32;50.15;;;6.60;99.90;;;;;;5012406;28;20036;-72
2021/12/16 11:58:06;;;;;;;76.95;48.35;;;6.70;99.90;;;;;;5010713;28;20029;-72
2021/12/16 12:00:37;;;;;;;76.28;48.15;;;6.60;99.90;;;;;;5019849;28;20025;-71
2021/12/16 12:03:14;;;;;;;83.75;52.08;;;6.70;99.90;;;;;;5013091;28;20030;-72
2021/12/16 12:05:42;;;;;;;85.63;52.53;;;6.80;99.90;;;;;;5013125;28;20076;-72
2021/12/16 12:08:20;;;;;;;77.50;48.65;;;6.90;99.90;;;;;;5014136;28;20050;-71
2021/12/16 12:10:50;;;;;;;84.18;51.72;;;7.00;99.90;;;;;;5010037;28;20534;-72
2021/12/16 12:13:22;;;;;;;90.32;52.88;;;6.90;99.90;;;;;;5015480;28;20032;-72
2021/12/16 12:16:07;;;;;;;80.82;51.20;;;6.90;99.90;;;;;;5011130;28;20105;-72
2021/12/16 12:18:38;;;;;;;82.07;49.13;;;7.00;99.90;;;;;;5010210;28;20481;-72
2021/12/16 12:21:36;;;;;;;83.78;50.42;;;7.00;99.90;;;;;;5013055;28;20029;-72
2021/12/16 12:24:32;;;;;;;82.35;49.10;;;7.00;99.90;;;;;;5013214;28;20048;-72
2021/12/16 12:27:01;;;;;;;86.18;52.92;;;6.90;99.90;;;;;;5016828;28;20041;-72
2021/12/16 12:29:36;;;;;;;83.75;51.63;;;6.90;99.90;;;;;;5014223;28;20025;-71
2021/12/16 12:32:02;;;;;;;78.00;48.10;;;7.00;99.90;;;;;;5015785;28;20544;-71
2021/12/16 12:34:29;;;;;;;81.45;49.08;;;7.00;99.90;;;;;;5025376;28;20026;-72
2021/12/16 12:36:57;;;;;;;70.32;47.15;;;7.10;99.90;;;;;;5016363;28;20025;-72
2021/12/16 12:39:28;;;;;;;73.47;46.67;;;6.90;99.90;;;;;;5016106;28;20113;-71
2021/12/16 12:41:54;;;;;;;73.60;47.47;;;7.00;99.90;;;;;;5016809;28;20025;-72
2021/12/16 12:44:20;;;;;;;75.47;47.13;;;7.00;99.90;;;;;;5018467;28;20380;-72
2021/12/16 12:46:47;;;;;;;78.03;47.67;;;6.90;99.90;;;;;;5018517;28;20029;-72
2021/12/16 12:49:16;;;;;;;74.03;47.50;;;6.90;99.90;;;;;;5013431;28;20101;-71
2021/12/16 12:51:47;;;;;;;75.20;50.38;;;6.90;99.90;;;;;;5017856;28;20026;-71
2021/12/16 12:54:24;;;;;;;70.07;47.13;;;6.90;99.90;;;;;;5014214;28;20030;-72
2021/12/16 12:56:52;;;;;;;77.63;47.45;;;6.90;99.90;;;;;;5018006;28;20439;-72
2021/12/16 12:59:18;;;;;;;74.68;48.13;;;6.90;99.90;;;;;;5018872;28;20018;-72
2021/12/16 13:01:53;;;;;;;76.75;49.65;;;6.80;99.90;;;;;;5016031;28;20018;-73
2021/12/16 13:04:26;;;;;;;77.13;50.37;;;6.80;99.90;;;;;;5013248;28;20025;-72
2021/12/16 13:07:05;;;;;;;76.57;48.10;;;6.80;99.90;;;;;;5013740;28;20109;-73
2021/12/16 13:09:55;;;;;;;77.25;47.90;;;6.90;99.90;;;;;;5011930;28;20100;-73
2021/12/16 13:12:48;;;;;;;74.35;48.40;;;7.10;99.90;;;;;;5011244;28;20080;-71
2021/12/16 13:15:26;;;;;;;76.03;48.38;;;7.00;99.90;;;;;;5012171;28;20025;-73
2021/12/16 13:24:06;;;;;;;72.78;47.22;;;7.10;99.90;;;;;;5012804;28;20075;-73
2021/12/16 13:30:16;;;;;;;76.85;49.10;;;7.00;99.90;;;;;;5012903;28;20580;-71
2021/12/16 13:32:45;;;;;;;77.20;48.72;;;7.00;99.90;;;;;;5014756;28;20038;-71
2021/12/16 13:35:33;;;;;;;79.53;50.35;;;7.00;99.90;;;;;;5015825;28;20064;-72
2021/12/16 13:38:05;;;;;;;68.72;46.38;;;7.00;99.90;;;;;;5014416;28;20436;-72
2021/12/16 13:40:35;;;;;;;70.60;47.10;;;7.00;99.90;;;;;;5009702;28;20018;-72
2021/12/16 13:43:15;;;;;;;73.20;48.03;;;7.10;99.90;;;;;;5018032;28;20105;-72
2021/12/16 13:46:00;;;;;;;68.25;44.90;;;7.00;99.90;;;;;;5014064;28;20052;-71
2021/12/16 14:05:19;;;;;;;68.43;44.83;;;7.30;99.90;;;;;;5017433;28;20054;-74
2021/12/16 14:07:56;;;;;;;66.07;45.83;;;7.30;99.90;;;;;;5022141;28;20519;-73
2021/12/16 14:10:53;;;;;;;69.72;45.90;;;7.20;99.90;;;;;;5009867;28;20494;-75
2021/12/16 14:16:34;;;;;;;65.75;45.33;;;7.10;99.90;;;;;;5021707;28;19915;-70
2021/12/16 14:25:17;;;;;;;63.65;44.50;;;7.00;99.90;;;;;;5009749;28;20338;-73
2021/12/16 14:45:10;;;;;;;69.90;46.65;;;6.90;99.90;;;;;;5011907;28;20033;-72
2021/12/16 14:49:50;;;;;;;61.38;43.38;;;6.90;99.90;;;;;;5010787;28;20036;-72
2021/12/16 14:52:20;;;;;;;56.58;40.78;;;6.90;99.90;;;;;;5012113;28;20508;-72
2021/12/16 14:54:54;;;;;;;55.63;39.15;;;6.80;99.90;;;;;;5011315;28;20030;-72
2021/12/16 14:57:23;;;;;;;53.58;39.47;;;6.70;99.90;;;;;;5012276;28;20141;-72
2021/12/16 14:59:49;;;;;;;59.00;40.25;;;6.70;99.90;;;;;;5012134;28;20365;-72
2021/12/16 15:02:16;;;;;;;52.70;38.78;;;6.80;99.90;;;;;;5012001;28;20029;-72
2021/12/16 15:04:42;;;;;;;51.10;37.70;;;6.80;99.90;;;;;;5012251;28;20110;-71
2021/12/16 15:07:10;;;;;;;45.28;35.22;;;6.80;99.90;;;;;;5011945;28;20030;-72
2021/12/16 15:09:39;;;;;;;45.28;35.47;;;6.70;99.90;;;;;;5013174;28;20487;-72
2021/12/16 15:12:20;;;;;;;48.83;37.35;;;6.60;99.90;;;;;;5011691;28;20056;-71
2021/12/16 15:32:02;;;;;;;57.40;45.08;;;6.70;99.90;;;;;;5011644;28;20040;-71
2021/12/16 15:39:56;;;;;;;58.40;41.03;;;6.60;99.90;;;;;;5011772;28;20018;-73
2021/12/16 15:42:51;;;;;;;55.22;40.13;;;6.70;99.90;;;;;;5010211;28;20022;-73
2021/12/16 15:45:24;;;;;;;59.22;41.15;;;6.70;99.90;;;;;;5011474;28;20093;-72
2021/12/16 15:47:59;;;;;;;58.67;42.08;;;6.60;99.90;;;;;;5011596;28;20026;-73
2021/12/16 15:50:32;;;;;;;58.42;39.75;;;6.60;99.90;;;;;;5011394;28;20018;-73
2021/12/16 15:53:00;;;;;;;60.00;42.40;;;6.70;99.90;;;;;;5009996;28;20057;-73
2021/12/16 15:55:38;;;;;;;60.08;41.63;;;6.70;99.90;;;;;;5011089;28;20054;-73
2021/12/16 15:58:11;;;;;;;61.72;42.22;;;6.60;99.90;;;;;;5012191;28;20041;-73
2021/12/16 16:00:41;;;;;;;59.90;41.80;;;6.50;99.90;;;;;;5016109;28;20025;-73
2021/12/16 16:03:08;;;;;;;60.97;42.60;;;6.60;99.90;;;;;;5022549;28;20025;-73
2021/12/16 16:05:45;;;;;;;55.85;41.20;;;6.50;99.90;;;;;;5016680;28;20048;-72
2021/12/16 16:08:14;;;;;;;59.72;40.95;;;6.60;99.90;;;;;;5006974;28;20032;-73
2021/12/16 16:10:43;;;;;;;61.85;42.78;;;6.60;99.90;;;;;;5014322;28;20026;-72
2021/12/16 16:13:14;;;;;;;57.97;41.10;;;6.60;99.90;;;;;;5028025;28;20216;-73
2021/12/16 16:15:41;;;;;;;63.55;43.65;;;6.60;99.90;;;;;;5015013;28;20064;-73
2021/12/16 16:18:15;;;;;;;61.03;43.63;;;6.70;99.90;;;;;;5017080;28;20018;-73
2021/12/16 16:20:47;;;;;;;68.32;46.92;;;6.70;99.90;;;;;;5018443;28;20018;-73